createdAt,value
2018-06-15T00:02:22.298Z,18.10
2018-06-15T00:04:56.677Z,18.20
2018-06-15T00:07:30.990Z,18.10
2018-06-15T00:10:04.366Z,18.20
2018-06-15T00:12:51.170Z,18.10
2018-06-15T00:15:29.470Z,18.10
2018-06-15T00:18:02.803Z,18.10
2018-06-15T00:20:46.467Z,18.20
2018-06-15T00:23:20.035Z,18.10
2018-06-15T00:25:54.950Z,18.00
2018-06-15T00:28:30.727Z,18.00
2018-06-15T00:31:06.995Z,18.10
2018-06-15T00:33:39.930Z,18.20
2018-06-15T00:36:12.674Z,18.10
2018-06-15T00:38:46.793Z,17.90
2018-06-15T00:41:19.648Z,18.00
2018-06-15T00:43:53.558Z,18.10
2018-06-15T00:46:27.252Z,18.10
2018-06-15T00:49:00.160Z,18.00
2018-06-15T00:51:32.888Z,18.10
2018-06-15T00:54:05.802Z,18.00
2018-06-15T00:56:43.960Z,17.90
2018-06-15T00:59:17.229Z,17.80
2018-06-15T01:01:49.825Z,17.80
2018-06-15T01:04:22.882Z,17.80
2018-06-15T01:06:55.726Z,17.80
2018-06-15T01:09:28.542Z,17.80
2018-06-15T01:12:01.243Z,17.80
2018-06-15T01:14:33.954Z,17.80
2018-06-15T01:17:09.211Z,17.80
2018-06-15T01:19:42.065Z,17.80
2018-06-15T01:22:15.795Z,17.70
2018-06-15T01:24:48.509Z,17.70
2018-06-15T01:27:21.485Z,17.70
2018-06-15T01:29:54.355Z,17.70
2018-06-15T01:32:28.048Z,17.70
2018-06-15T01:35:00.670Z,17.70
2018-06-15T01:37:33.557Z,17.70
2018-06-15T01:40:08.172Z,17.60
2018-06-15T01:42:44.599Z,17.60
2018-06-15T01:45:43.954Z,17.60
2018-06-15T01:48:19.506Z,17.50
2018-06-15T01:50:51.832Z,17.50
2018-06-15T01:53:24.035Z,17.50
2018-06-15T01:55:57.701Z,17.50
2018-06-15T02:01:51.020Z,17.50
2018-06-15T02:07:53.025Z,17.50
2018-06-15T02:10:31.423Z,17.50
2018-06-15T02:13:04.005Z,17.50
2018-06-15T02:19:07.777Z,17.50
2018-06-15T02:21:40.232Z,17.50
2018-06-15T02:24:12.917Z,17.40
2018-06-15T02:26:45.488Z,17.50
2018-06-15T02:29:18.051Z,17.50
2018-06-15T02:34:21.365Z,17.50
2018-06-15T02:36:53.800Z,17.50
2018-06-15T02:39:26.152Z,17.50
2018-06-15T02:41:58.549Z,17.60
2018-06-15T02:45:07.054Z,17.50
2018-06-15T02:47:39.668Z,17.50
2018-06-15T02:50:12.570Z,17.50
2018-06-15T02:52:45.433Z,17.50
2018-06-15T02:55:18.789Z,17.40
2018-06-15T03:01:12.096Z,17.40
2018-06-15T03:03:44.731Z,17.40
2018-06-15T03:06:17.222Z,17.40
2018-06-15T03:08:52.847Z,17.40
2018-06-15T03:11:26.000Z,17.40
2018-06-15T03:13:58.752Z,17.50
2018-06-15T03:16:31.352Z,17.50
2018-06-15T03:19:03.869Z,17.50
2018-06-15T03:21:36.430Z,17.50
2018-06-15T03:27:31.111Z,17.50
2018-06-15T03:30:08.630Z,17.50
2018-06-15T03:32:51.410Z,17.40
2018-06-15T03:35:35.629Z,17.40
2018-06-15T03:38:09.712Z,17.50
2018-06-15T03:40:43.429Z,17.50
2018-06-15T03:43:15.441Z,17.50
2018-06-15T03:45:47.539Z,17.50
2018-06-15T03:48:19.758Z,17.50
2018-06-15T03:50:51.825Z,17.60
2018-06-15T03:53:23.907Z,17.60
2018-06-15T03:55:55.957Z,17.60
2018-06-15T03:58:28.104Z,17.60
2018-06-15T04:01:00.102Z,17.60
2018-06-15T04:03:32.061Z,17.60
2018-06-15T04:06:04.223Z,17.60
2018-06-15T04:08:36.354Z,17.50
2018-06-15T04:11:08.531Z,17.50
2018-06-15T04:13:40.507Z,17.50
2018-06-15T04:16:12.560Z,17.50
2018-06-15T04:18:44.666Z,17.50
2018-06-15T04:24:48.298Z,17.70
2018-06-15T04:27:20.781Z,17.70
2018-06-15T04:29:53.332Z,17.70
2018-06-15T04:32:25.822Z,17.70
2018-06-15T04:34:58.634Z,17.70
2018-06-15T04:37:37.614Z,17.60
2018-06-15T04:40:16.468Z,17.60
2018-06-15T04:42:49.031Z,17.60
2018-06-15T04:45:21.555Z,17.60
2018-06-15T04:47:59.555Z,17.60
2018-06-15T04:50:33.916Z,17.60
2018-06-15T04:53:06.374Z,17.60
2018-06-15T04:55:38.843Z,17.70
2018-06-15T04:58:11.356Z,17.80
2018-06-15T05:00:44.005Z,17.80
2018-06-15T05:03:17.128Z,17.80
2018-06-15T05:05:49.632Z,17.80
2018-06-15T05:08:22.617Z,17.80
2018-06-15T05:10:55.158Z,17.80
2018-06-15T05:13:27.733Z,17.80
2018-06-15T05:16:00.466Z,17.80
2018-06-15T05:18:33.197Z,17.80
2018-06-15T05:21:05.768Z,17.80
2018-06-15T05:23:38.280Z,17.70
2018-06-15T05:26:10.737Z,17.70
2018-06-15T05:28:43.123Z,17.70
2018-06-15T05:31:15.624Z,17.70
2018-06-15T05:33:48.283Z,17.70
2018-06-15T05:36:20.604Z,17.70
2018-06-15T05:38:53.345Z,17.70
2018-06-15T05:41:25.970Z,17.70
2018-06-15T05:43:58.413Z,17.70
2018-06-15T05:46:30.811Z,17.70
2018-06-15T05:49:05.460Z,17.70
2018-06-15T05:51:37.926Z,17.70
2018-06-15T05:54:10.562Z,17.70
2018-06-15T05:56:42.886Z,17.70
2018-06-15T05:59:15.390Z,17.70
2018-06-15T06:01:47.827Z,17.60
2018-06-15T06:04:21.596Z,17.60
2018-06-15T06:10:47.765Z,17.60
2018-06-15T06:13:24.279Z,17.50
2018-06-15T06:15:57.287Z,17.50
2018-06-15T06:18:30.228Z,17.50
2018-06-15T06:21:03.203Z,17.50
2018-06-15T06:23:36.717Z,17.50
2018-06-15T06:26:09.492Z,17.40
2018-06-15T06:28:42.936Z,17.40
2018-06-15T06:31:16.412Z,17.40
2018-06-15T06:33:48.932Z,17.40
2018-06-15T06:39:42.083Z,17.30
2018-06-15T06:44:45.216Z,17.30
2018-06-15T06:47:17.340Z,17.30
2018-06-15T06:49:49.504Z,17.40
2018-06-15T06:52:21.620Z,17.40
2018-06-15T06:54:53.767Z,17.40
2018-06-15T06:57:26.495Z,17.50
2018-06-15T06:59:58.691Z,17.50
2018-06-15T07:02:30.919Z,17.40
2018-06-15T07:05:03.098Z,17.40
2018-06-15T07:07:35.343Z,17.40
2018-06-15T07:10:09.609Z,17.50
2018-06-15T07:12:42.827Z,17.50
2018-06-15T07:15:15.060Z,17.50
2018-06-15T07:17:47.120Z,17.50
2018-06-15T07:20:19.230Z,17.60
2018-06-15T07:22:51.521Z,17.60
2018-06-15T07:25:23.703Z,17.50
2018-06-15T07:27:55.907Z,17.50
2018-06-15T07:30:28.045Z,17.50
2018-06-15T07:33:00.147Z,17.50
2018-06-15T07:35:32.794Z,17.50
2018-06-15T07:38:06.699Z,17.50
2018-06-15T07:40:39.059Z,17.40
2018-06-15T07:43:11.301Z,17.40
2018-06-15T07:45:43.599Z,17.40
2018-06-15T07:48:16.302Z,17.50
2018-06-15T07:50:48.428Z,17.50
2018-06-15T07:53:20.503Z,17.50
2018-06-15T07:55:52.765Z,17.50
2018-06-15T07:58:24.920Z,17.40
2018-06-15T08:00:56.992Z,17.30
2018-06-15T08:03:29.157Z,17.30
2018-06-15T08:06:01.255Z,17.30
2018-06-15T08:08:33.428Z,17.20
2018-06-15T08:11:05.735Z,17.20
2018-06-15T08:13:38.145Z,17.20
2018-06-15T08:16:11.112Z,17.10
2018-06-15T08:18:43.612Z,17.10
2018-06-15T08:21:15.798Z,17.10
2018-06-15T08:23:47.921Z,17.10
2018-06-15T08:26:20.984Z,17.10
2018-06-15T08:28:53.202Z,17.00
2018-06-15T08:31:55.089Z,17.00
2018-06-15T08:34:27.274Z,17.00
2018-06-15T08:36:59.389Z,17.00
2018-06-15T08:39:31.541Z,17.00
2018-06-15T08:42:03.652Z,17.00
2018-06-15T08:44:35.828Z,17.00
2018-06-15T08:47:08.141Z,17.00
2018-06-15T08:49:41.150Z,17.00
2018-06-15T08:52:13.446Z,16.90
2018-06-15T08:54:45.754Z,16.90
2018-06-15T08:57:17.939Z,17.00
2018-06-15T09:03:11.631Z,17.00
2018-06-15T09:05:44.138Z,17.00
2018-06-15T09:08:16.765Z,17.00
2018-06-15T09:14:09.400Z,17.00
2018-06-15T09:20:12.845Z,17.00
2018-06-15T09:22:45.370Z,17.00
2018-06-15T09:25:17.690Z,17.00
2018-06-15T09:27:50.070Z,17.00
2018-06-15T09:30:22.253Z,16.90
2018-06-15T09:32:54.521Z,16.90
2018-06-15T09:35:26.704Z,17.00
2018-06-15T09:37:59.022Z,17.00
2018-06-15T09:40:31.271Z,17.00
2018-06-15T09:43:03.497Z,17.00
2018-06-15T09:45:35.676Z,17.00
2018-06-15T09:48:08.500Z,16.90
2018-06-15T09:50:41.342Z,17.00
2018-06-15T09:55:45.546Z,17.00
2018-06-15T09:58:17.822Z,17.00
2018-06-15T10:00:52.238Z,17.00
2018-06-15T10:03:24.508Z,16.90
2018-06-15T10:05:56.765Z,16.90
2018-06-15T10:08:28.993Z,16.90
2018-06-15T10:11:01.174Z,16.80
2018-06-15T10:13:33.462Z,16.80
2018-06-15T10:16:05.848Z,16.80
2018-06-15T10:18:38.097Z,16.80
2018-06-15T10:21:10.341Z,16.80
2018-06-15T10:23:43.028Z,16.80
2018-06-15T10:26:15.429Z,16.70
2018-06-15T10:28:47.604Z,16.80
2018-06-15T10:31:19.983Z,16.80
2018-06-15T10:33:52.296Z,16.80
2018-06-15T10:36:24.476Z,16.80
2018-06-15T10:38:56.717Z,16.80
2018-06-15T10:41:28.930Z,16.70
2018-06-15T10:44:01.230Z,16.70
2018-06-15T10:46:33.676Z,16.70
2018-06-15T10:49:05.976Z,16.80
2018-06-15T10:51:38.194Z,16.80
2018-06-15T10:54:10.549Z,16.80
2018-06-15T10:56:42.789Z,16.90
2018-06-15T10:59:15.467Z,16.90
2018-06-15T11:01:47.695Z,16.90
2018-06-15T11:04:19.904Z,17.00
2018-06-15T11:06:52.126Z,17.00
2018-06-15T11:09:24.548Z,17.10
2018-06-15T11:11:56.939Z,17.10
2018-06-15T11:14:29.406Z,17.10
2018-06-15T11:17:01.722Z,17.00
2018-06-15T11:19:34.043Z,17.00
2018-06-15T11:22:06.414Z,16.90
2018-06-15T11:24:38.632Z,16.90
2018-06-15T11:27:11.017Z,16.80
2018-06-15T11:30:28.415Z,16.80
2018-06-15T11:33:01.240Z,16.80
2018-06-15T11:35:33.922Z,16.80
2018-06-15T11:38:06.717Z,16.80
2018-06-15T11:40:40.389Z,16.80
2018-06-15T11:46:34.320Z,16.80
2018-06-15T11:49:09.492Z,16.80
2018-06-15T11:51:41.791Z,16.90
2018-06-15T11:54:13.775Z,16.90
2018-06-15T11:56:46.148Z,17.00
2018-06-15T11:59:18.552Z,17.10
2018-06-15T12:01:50.905Z,17.20
2018-06-15T12:04:23.168Z,17.30
2018-06-15T12:06:55.270Z,17.20
2018-06-15T12:09:27.391Z,17.30
2018-06-15T12:12:02.063Z,17.30
2018-06-15T12:14:34.394Z,17.30
2018-06-15T12:17:06.481Z,17.30
2018-06-15T12:19:40.044Z,17.40
2018-06-15T12:22:12.606Z,17.30
2018-06-15T12:31:36.674Z,17.60
2018-06-15T12:34:09.215Z,17.60
2018-06-15T12:36:41.905Z,17.60
2018-06-15T12:39:51.335Z,17.70
2018-06-15T12:42:24.258Z,17.60
2018-06-15T12:44:56.502Z,17.60
2018-06-15T12:47:28.652Z,17.70
2018-06-15T12:50:00.918Z,17.80
2018-06-15T12:52:33.199Z,17.80
2018-06-15T12:55:05.499Z,17.90
2018-06-15T12:57:37.977Z,17.90
2018-06-15T13:00:10.283Z,18.00
2018-06-15T13:02:42.533Z,18.10
2018-06-15T13:05:15.268Z,18.20
2018-06-15T13:07:47.628Z,18.30
2018-06-15T13:10:20.600Z,18.30
2018-06-15T13:12:53.016Z,18.60
2018-06-15T13:15:30.197Z,19.00
2018-06-15T13:18:32.134Z,19.60
2018-06-15T13:21:04.424Z,19.50
2018-06-15T13:23:36.818Z,19.80
2018-06-15T13:29:30.138Z,20.00
2018-06-15T13:32:02.337Z,20.20
2018-06-15T13:34:34.435Z,20.50
2018-06-15T13:37:06.694Z,20.50
2018-06-15T13:39:40.500Z,20.50
2018-06-15T13:42:14.207Z,20.50
2018-06-15T13:44:46.342Z,20.30
2018-06-15T13:47:18.650Z,20.40
2018-06-15T13:49:50.871Z,20.50
2018-06-15T13:52:22.990Z,20.80
2018-06-15T13:54:55.360Z,20.70
2018-06-15T13:57:27.548Z,20.70
2018-06-15T13:59:59.676Z,20.90
2018-06-15T14:02:31.857Z,21.10
2018-06-15T14:05:04.026Z,20.70
2018-06-15T14:07:36.424Z,20.70
2018-06-15T14:10:08.766Z,20.60
2018-06-15T14:15:18.660Z,20.70
2018-06-15T14:17:50.924Z,21.10
2018-06-15T14:20:23.105Z,21.10
2018-06-15T14:25:26.381Z,21.20
2018-06-15T14:27:58.616Z,21.10
2018-06-15T14:30:30.735Z,21.10
2018-06-15T14:33:02.954Z,21.20
2018-06-15T14:35:35.219Z,21.10
2018-06-15T14:38:07.470Z,21.20
2018-06-15T14:40:39.572Z,21.30
2018-06-15T14:43:12.400Z,21.20
2018-06-15T14:45:44.676Z,21.40
2018-06-15T14:48:17.632Z,21.60
2018-06-15T14:50:50.242Z,21.90
2018-06-15T14:53:22.552Z,21.80
2018-06-15T14:55:54.838Z,21.60
2018-06-15T14:58:27.183Z,21.90
2018-06-15T15:01:00.149Z,22.00
2018-06-15T15:03:33.813Z,22.20
2018-06-15T15:06:11.234Z,22.40
2018-06-15T15:08:43.683Z,22.30
2018-06-15T15:11:15.956Z,22.00
2018-06-15T15:13:51.080Z,22.30
2018-06-15T15:16:23.411Z,22.60
2018-06-15T15:18:55.706Z,22.90
2018-06-15T15:21:28.674Z,23.00
2018-06-15T15:24:01.491Z,23.10
2018-06-15T15:26:35.370Z,23.10
2018-06-15T15:29:08.950Z,22.60
2018-06-15T15:31:43.528Z,22.50
2018-06-15T15:34:17.040Z,22.30
2018-06-15T15:36:50.394Z,22.40
2018-06-15T15:39:25.075Z,22.30
2018-06-15T15:42:00.585Z,22.30
2018-06-15T15:44:35.787Z,22.00
2018-06-15T15:47:08.047Z,22.10
2018-06-15T15:49:41.259Z,22.10
2018-06-15T15:52:16.030Z,22.10
2018-06-15T15:54:52.227Z,21.70
2018-06-15T15:57:33.706Z,21.70
2018-06-15T16:00:06.508Z,21.80
2018-06-15T16:05:49.799Z,21.90
2018-06-15T16:08:25.422Z,21.80
2018-06-15T16:11:00.627Z,21.80
2018-06-15T16:13:37.937Z,21.80
2018-06-15T16:16:23.550Z,21.80
2018-06-15T16:18:57.234Z,21.90
2018-06-15T16:21:31.000Z,22.00
2018-06-15T16:24:04.356Z,22.00
2018-06-15T16:26:49.919Z,21.80
2018-06-15T16:29:32.775Z,21.80
2018-06-15T16:32:12.381Z,22.00
2018-06-15T16:34:50.752Z,22.40
2018-06-15T16:37:24.548Z,22.70
2018-06-15T16:39:59.121Z,22.60
2018-06-15T16:42:32.898Z,22.80
2018-06-15T16:45:06.485Z,22.90
2018-06-15T16:47:41.545Z,22.90
2018-06-15T16:50:15.476Z,23.20
2018-06-15T16:52:52.587Z,23.40
2018-06-15T16:55:25.807Z,23.30
2018-06-15T16:58:01.827Z,23.50
2018-06-15T17:00:36.174Z,23.90
2018-06-15T17:03:11.707Z,24.00
2018-06-15T17:05:46.639Z,24.60
2018-06-15T17:08:20.912Z,24.90
2018-06-15T17:11:03.020Z,25.50
2018-06-15T17:13:37.038Z,25.80
2018-06-15T17:16:17.552Z,25.50
2018-06-15T17:18:55.213Z,25.20
2018-06-15T17:21:29.437Z,25.50
2018-06-15T17:24:09.442Z,25.10
2018-06-15T17:26:43.223Z,24.70
2018-06-15T17:31:48.885Z,24.90
2018-06-15T17:34:25.768Z,25.20
2018-06-15T17:37:02.778Z,25.60
2018-06-15T17:39:36.639Z,25.60
2018-06-15T17:42:14.915Z,25.80
2018-06-15T17:47:33.605Z,25.10
2018-06-15T17:50:09.824Z,24.50
2018-06-15T17:52:50.516Z,24.90
2018-06-15T17:55:24.815Z,25.40
2018-06-15T18:00:31.255Z,25.90
2018-06-15T18:03:08.761Z,25.80
2018-06-15T18:05:42.055Z,26.20
2018-06-15T18:08:15.433Z,26.50
2018-06-15T18:10:49.367Z,26.50
2018-06-15T18:13:28.245Z,26.50
2018-06-15T18:16:04.851Z,26.30
2018-06-15T18:18:42.198Z,26.30
2018-06-15T18:21:15.495Z,26.20
2018-06-15T18:23:49.355Z,26.20
2018-06-15T18:26:23.258Z,26.00
2018-06-15T18:31:31.677Z,26.10
2018-06-15T18:34:04.995Z,26.40
2018-06-15T18:42:41.640Z,26.30
2018-06-15T18:45:25.662Z,26.60
2018-06-15T18:48:05.051Z,26.10
2018-06-15T18:50:41.457Z,26.20
2018-06-15T18:53:18.823Z,26.50
2018-06-15T18:55:53.431Z,26.60
2018-06-15T18:58:29.660Z,26.80
2018-06-15T19:01:24.993Z,26.80
2018-06-15T19:04:00.162Z,26.30
2018-06-15T19:06:33.926Z,26.40
2018-06-15T19:09:38.770Z,26.60
2018-06-15T19:12:12.347Z,26.80
2018-06-15T19:20:18.824Z,25.80
2018-06-15T19:22:58.032Z,25.50
2018-06-15T19:25:40.781Z,25.40
2018-06-15T19:28:15.124Z,25.30
2018-06-15T19:30:54.773Z,25.20
2018-06-15T19:33:37.094Z,25.20
2018-06-15T19:41:33.978Z,25.40
2018-06-15T19:44:11.991Z,25.40
2018-06-15T19:46:49.003Z,25.30
2018-06-15T19:49:24.582Z,25.70
2018-06-15T19:51:59.315Z,25.70
2018-06-15T19:54:34.291Z,25.80
2018-06-15T19:57:09.646Z,25.10
2018-06-15T19:59:45.437Z,24.90
2018-06-15T20:02:28.516Z,25.00
2018-06-15T20:05:05.331Z,25.40
2018-06-15T20:08:14.913Z,25.70
2018-06-15T20:16:49.481Z,25.10
2018-06-15T20:19:30.864Z,24.90
2018-06-15T20:22:11.481Z,24.90
2018-06-15T20:27:41.908Z,25.50
2018-06-15T20:36:51.399Z,25.00
2018-06-15T20:42:31.875Z,25.40
2018-06-15T20:45:16.813Z,25.60
2018-06-15T20:47:53.067Z,25.60
2018-06-15T20:53:32.922Z,24.80
2018-06-15T20:56:30.850Z,24.40
2018-06-15T21:05:03.682Z,25.00
2018-06-15T21:07:42.144Z,25.10
2018-06-15T21:13:02.125Z,25.00
2018-06-15T21:15:35.798Z,24.80
2018-06-15T21:18:12.954Z,24.80
2018-06-15T21:27:08.804Z,24.40
2018-06-15T23:51:51.945Z,18.90
2018-06-15T23:54:29.663Z,19.00
2018-06-15T23:57:06.539Z,18.80
2018-06-15T23:59:38.943Z,18.60
